首页
METAR-TAF:

METAR-TAF

机场 :

巴里, 意大利

纬度: 41-08N, 经度: 016-47E, 海拔: 34米

当前天气观测

该预报发布于22分钟前的03:20 UTC
风速3节,风向西南
温度 22°C
湿度 73%
气压 1010 hPa
能见度10公里或以上
1500米以下无云,无积雨云

METAR: LIBD 220320Z 23003KT CAVOK 22/17 Q1010

时间: 05:42 (03:42 UTC)

预报

该预报发布于4小时和42分钟前的23:00 UTC
预报有效从22日的 00点(UTC)到 22日的 24点(UTC)
风速5节,风向多变
能见度10公里或以上
1500米以下无云,无积雨云
成为
从 22日的 06点(UTC)到 22日的 08点(UTC)
风速12节,风向

TAF: LIBD 212300Z 2200/2224 VRB05KT CAVOK BECMG 2206/2208 01012KT

超过4000个机场的气象观测和天气预报(METAR&TAF报告)。

可查询的气象台以黄色和红色小点在地图上表示。

将鼠标移到小点上方,可查看气象台名称。

然后点击查看天气观测和预报。

如需切换地图:点击带黑十字的绿色按钮放大地图;点击带横线的绿色按钮缩小地图;或者点击绿色箭头查看邻近地区的地图。


METAR-TAF: